Time;durP1;ratioP1;P1;durP2;ratioP2;P2;SDS_P1;SDS_P2;PMS_P1;PMS_P2;Temp;Humidity;BMP_temperature;BMP_pressure;BME280_temperature;BME280_humidity;BME280_pressure;Samples;Min_cycle;Max_cycle;Signal;HPM_P1;HPM_P2
2021/04/11 00:00:32;;;;;;;5.93;5.60;;;16.60;85.50;;;;;;5072575;28;20024;-58
2021/04/11 00:03:01;;;;;;;5.72;5.32;;;16.70;85.60;;;;;;5072623;28;20048;-59
2021/04/11 00:05:31;;;;;;;5.95;5.47;;;17.10;86.30;;;;;;5072551;28;20021;-59
2021/04/11 00:07:58;;;;;;;;;;;16.80;84.70;;;;;;5073077;28;20381;-59
2021/04/11 00:10:33;;;;;;;5.70;5.40;;;16.90;84.30;;;;;;5072648;28;19912;-59
2021/04/11 00:13:03;;;;;;;5.65;5.35;;;17.00;83.90;;;;;;5072561;28;20048;-59
2021/04/11 00:15:31;;;;;;;5.90;5.60;;;16.50;83.50;;;;;;5072669;28;20052;-58
2021/04/11 00:17:58;;;;;;;5.78;5.47;;;16.30;84.60;;;;;;5072538;28;20109;-59
2021/04/11 00:20:26;;;;;;;5.60;5.30;;;16.10;86.00;;;;;;5072523;28;20031;-59
2021/04/11 00:22:54;;;;;;;5.80;5.38;;;16.20;84.70;;;;;;5072609;28;20070;-59
2021/04/11 00:25:26;;;;;;;5.80;5.47;;;16.50;85.60;;;;;;5072573;28;20025;-59
2021/04/11 00:27:54;;;;;;;5.40;5.10;;;16.70;85.00;;;;;;5072504;28;20021;-59
2021/04/11 00:30:22;;;;;;;5.15;4.95;;;16.80;84.20;;;;;;5072438;28;20027;-60
2021/04/11 00:32:50;;;;;;;5.80;5.30;;;16.70;84.30;;;;;;5072510;28;20070;-58
2021/04/11 00:35:21;;;;;;;5.40;5.10;;;17.20;85.40;;;;;;5072421;28;20503;-58
2021/04/11 00:37:48;;;;;;;5.85;5.47;;;17.50;84.90;;;;;;5072122;28;20086;-65
2021/04/11 00:40:22;;;;;;;6.07;5.72;;;17.40;83.00;;;;;;5072059;28;20048;-58
2021/04/11 00:43:01;;;;;;;5.72;5.30;;;17.00;83.60;;;;;;5072439;28;20096;-59
2021/04/11 00:45:49;;;;;;;5.40;5.10;;;17.10;85.40;;;;;;5072376;28;20023;-59
2021/04/11 00:48:19;;;;;;;5.90;5.60;;;17.40;83.70;;;;;;5072265;28;20074;-59
2021/04/11 00:51:17;;;;;;;6.15;5.60;;;17.10;83.00;;;;;;5072275;28;20025;-60
2021/04/11 00:53:44;;;;;;;5.57;5.28;;;17.10;84.20;;;;;;5060309;28;20492;-59
2021/04/11 00:56:16;;;;;;;6.05;5.65;;;17.20;82.20;;;;;;5072282;28;20031;-59
2021/04/11 00:58:44;;;;;;;5.75;5.43;;;17.00;82.00;;;;;;5072324;28;20086;-60
2021/04/11 01:01:11;;;;;;;5.70;5.30;;;17.30;84.10;;;;;;5075465;28;20020;-59
2021/04/11 01:03:40;;;;;;;5.63;5.32;;;17.50;82.90;;;;;;5075701;28;20032;-59
2021/04/11 01:06:11;;;;;;;5.53;5.28;;;17.40;83.70;;;;;;5075544;28;20028;-58
2021/04/11 01:08:39;;;;;;;5.43;5.10;;;17.20;81.40;;;;;;5075763;28;20092;-59
2021/04/11 01:11:17;;;;;;;5.72;5.43;;;17.30;81.80;;;;;;5075657;28;20431;-59
2021/04/11 01:13:51;;;;;;;5.50;5.30;;;17.80;84.20;;;;;;5075836;28;20040;-60
2021/04/11 01:16:20;;;;;;;5.63;5.32;;;17.40;83.00;;;;;;5075648;28;20042;-60
2021/04/11 01:18:49;;;;;;;6.28;5.82;;;17.50;84.60;;;;;;5075472;28;20016;-59
2021/04/11 01:21:42;;;;;;;6.13;5.72;;;17.50;82.80;;;;;;5075309;28;20111;-58
2021/04/11 01:24:41;;;;;;;6.38;5.88;;;17.70;84.20;;;;;;5075382;28;20012;-59
2021/04/11 01:27:11;;;;;;;5.93;5.63;;;17.60;83.70;;;;;;5041447;28;20037;-58
2021/04/11 01:29:40;;;;;;;6.25;5.80;;;17.40;84.30;;;;;;5075235;28;20028;-59
2021/04/11 01:32:09;;;;;;;5.97;5.68;;;17.30;82.80;;;;;;5075275;28;20028;-59
2021/04/11 01:34:39;;;;;;;6.05;5.75;;;17.60;83.10;;;;;;5075189;28;20074;-59
2021/04/11 01:37:08;;;;;;;5.60;5.30;;;18.10;84.70;;;;;;5075228;28;20446;-59
2021/04/11 01:39:39;;;;;;;7.07;6.47;;;17.90;79.00;;;;;;5075092;28;20068;-59
2021/04/11 01:42:07;;;;;;;5.75;5.50;;;17.90;80.70;;;;;;5075002;28;20039;-59
2021/04/11 01:44:38;;;;;;;6.20;5.88;;;18.00;80.70;;;;;;5075050;28;20028;-63
2021/04/11 01:47:06;;;;;;;7.35;6.68;;;18.20;81.50;;;;;;5075160;28;20020;-59
2021/04/11 01:49:34;;;;;;;6.18;5.90;;;17.70;79.90;;;;;;5075030;28;20085;-59
2021/04/11 01:52:09;;;;;;;6.63;6.18;;;17.60;79.40;;;;;;5074900;28;20028;-59
2021/04/11 01:54:37;;;;;;;6.45;6.05;;;17.70;79.20;;;;;;5074871;28;20024;-59
2021/04/11 01:57:10;;;;;;;6.30;5.95;;;18.00;80.40;;;;;;5074834;28;20032;-59
2021/04/11 01:59:38;;;;;;;6.75;6.25;;;18.10;82.50;;;;;;5073543;28;20381;-60
2021/04/11 02:02:11;;;;;;;6.85;6.38;;;17.90;80.30;;;;;;5074476;28;20017;-59
2021/04/11 02:04:39;;;;;;;6.50;6.30;;;18.00;79.90;;;;;;5074497;28;20577;-58
2021/04/11 02:07:09;;;;;;;6.43;6.10;;;18.40;81.20;;;;;;5074492;28;20017;-59
2021/04/11 02:09:46;;;;;;;5.75;5.50;;;18.20;78.70;;;;;;5074361;28;20024;-59
2021/04/11 02:12:16;;;;;;;6.47;6.18;;;18.50;80.10;;;;;;5074102;28;20028;-59
2021/04/11 02:14:45;;;;;;;6.00;5.70;;;18.60;78.20;;;;;;5074384;28;20023;-58
2021/04/11 02:17:15;;;;;;;6.18;5.88;;;18.30;81.20;;;;;;5074253;28;20384;-58
2021/04/11 02:19:43;;;;;;;5.70;5.40;;;18.50;78.00;;;;;;5073000;28;20082;-59
2021/04/11 02:22:30;;;;;;;5.72;5.40;;;18.10;79.20;;;;;;5074013;28;20477;-58
2021/04/11 02:24:59;;;;;;;5.70;5.43;;;18.50;81.40;;;;;;5074120;28;20024;-59
2021/04/11 02:27:28;;;;;;;5.75;5.53;;;18.70;78.40;;;;;;5074272;28;20023;-59
2021/04/11 02:29:56;;;;;;;6.20;5.75;;;18.80;79.30;;;;;;5074237;28;20121;-58
2021/04/11 02:32:24;;;;;;;5.63;5.32;;;19.30;79.40;;;;;;5074163;28;20013;-59
2021/04/11 02:34:51;;;;;;;5.82;5.53;;;19.00;79.30;;;;;;5074140;28;20013;-59
2021/04/11 02:37:26;;;;;;;6.00;5.70;;;18.30;78.20;;;;;;5074053;28;20062;-59
2021/04/11 02:39:58;;;;;;;6.05;5.70;;;18.10;78.50;;;;;;5073693;28;20372;-59
2021/04/11 02:42:30;;;;;;;5.95;5.60;;;18.30;79.20;;;;;;5074038;28;20145;-59
2021/04/11 02:45:05;;;;;;;5.55;5.15;;;18.70;78.10;;;;;;5074108;28;20021;-59
2021/04/11 02:47:32;;;;;;;6.15;5.80;;;18.70;79.30;;;;;;5073928;28;20017;-60
2021/04/11 02:50:00;;;;;;;6.38;6.05;;;18.80;79.90;;;;;;5073723;28;20017;-58
2021/04/11 02:52:35;;;;;;;5.80;5.47;;;18.90;78.90;;;;;;5073682;28;20388;-60
2021/04/11 02:55:03;;;;;;;5.80;5.50;;;19.20;80.40;;;;;;5073817;28;20020;-59
2021/04/11 02:57:31;;;;;;;5.90;5.60;;;19.20;83.00;;;;;;5073928;28;20415;-59
2021/04/11 02:59:58;;;;;;;5.95;5.50;;;19.20;77.90;;;;;;5073431;28;20044;-59
2021/04/11 03:02:26;;;;;;;5.70;5.40;;;19.30;79.60;;;;;;5073549;28;20031;-59
2021/04/11 03:04:54;;;;;;;5.57;5.28;;;18.60;78.10;;;;;;5073612;28;20107;-59
2021/04/11 03:07:27;;;;;;;5.40;5.20;;;18.50;77.50;;;;;;5073500;28;20020;-58
2021/04/11 03:10:09;;;;;;;5.40;5.10;;;19.20;82.30;;;;;;5073420;28;20031;-58
2021/04/11 03:12:38;;;;;;;5.30;5.10;;;19.20;77.20;;;;;;5073445;28;20024;-58
2021/04/11 03:15:09;;;;;;;5.47;5.20;;;19.00;77.40;;;;;;5073253;28;20129;-59
2021/04/11 03:17:36;;;;;;;4.95;4.75;;;19.10;77.60;;;;;;5073250;28;20032;-58
2021/04/11 03:20:15;;;;;;;5.80;5.40;;;18.70;76.80;;;;;;5073239;28;20025;-60
2021/04/11 03:22:42;;;;;;;5.20;4.90;;;18.80;77.00;;;;;;5072653;28;20066;-60
2021/04/11 03:25:13;;;;;;;5.35;5.10;;;18.90;76.20;;;;;;5073179;28;20095;-61
2021/04/11 03:28:04;;;;;;;5.28;4.97;;;19.00;77.10;;;;;;5073116;28;20016;-59
2021/04/11 03:30:41;;;;;;;5.45;5.10;;;18.70;76.40;;;;;;5073091;28;20040;-59
2021/04/11 03:33:15;;;;;;;5.38;5.05;;;18.30;75.60;;;;;;5071714;28;20021;-58
2021/04/11 03:35:46;;;;;;;5.80;5.10;;;18.00;75.90;;;;;;5073022;28;20031;-59
2021/04/11 03:38:17;;;;;;;5.13;4.72;;;18.60;76.70;;;;;;5072853;28;20028;-58
2021/04/11 03:40:50;;;;;;;5.32;5.10;;;18.60;76.30;;;;;;5072861;28;20040;-59
2021/04/11 03:43:33;;;;;;;4.97;4.78;;;18.50;76.10;;;;;;5072791;28;20070;-59
2021/04/11 03:46:06;;;;;;;5.47;5.27;;;18.60;77.20;;;;;;5073091;28;20028;-59
2021/04/11 03:49:17;;;;;;;5.50;5.20;;;18.60;75.70;;;;;;5073014;28;20017;-59
2021/04/11 03:51:47;;;;;;;4.90;4.70;;;18.80;77.50;;;;;;5072686;28;20496;-59
2021/04/11 03:54:28;;;;;;;4.88;4.57;;;19.00;76.70;;;;;;5072906;28;20032;-59
2021/04/11 03:57:10;;;;;;;;;;;18.80;76.70;;;;;;5073137;28;20139;-58
2021/04/11 03:59:55;;;;;;;5.45;5.20;;;18.60;75.40;;;;;;5073024;28;19904;-59
2021/04/11 04:02:25;;;;;;;5.03;4.72;;;18.80;75.90;;;;;;5072717;28;20021;-59
2021/04/11 04:04:55;;;;;;;4.82;4.63;;;19.10;76.70;;;;;;5072713;28;20115;-59
2021/04/11 04:07:24;;;;;;;5.35;5.15;;;18.60;75.70;;;;;;5071447;28;20028;-60
2021/04/11 04:10:00;;;;;;;5.20;4.90;;;18.90;75.80;;;;;;5072752;28;20453;-60
2021/04/11 04:12:58;;;;;;;5.03;4.72;;;18.90;75.60;;;;;;5072653;28;20025;-59
2021/04/11 04:15:28;;;;;;;5.30;5.00;;;18.90;80.00;;;;;;5072727;28;20025;-59
2021/04/11 04:18:33;;;;;;;5.85;5.55;;;19.00;76.50;;;;;;5072801;28;20024;-59
2021/04/11 04:21:09;;;;;;;5.78;5.45;;;18.90;74.70;;;;;;5072550;28;20548;-59
2021/04/11 04:23:39;;;;;;;5.43;5.22;;;18.80;77.20;;;;;;5072669;28;20052;-59
2021/04/11 04:26:34;;;;;;;5.70;5.30;;;19.20;76.90;;;;;;5072662;28;20028;-59
2021/04/11 04:29:32;;;;;;;5.65;5.30;;;19.20;75.90;;;;;;5072538;28;20031;-59
2021/04/11 04:32:08;;;;;;;5.40;5.00;;;19.50;77.10;;;;;;5072612;28;20024;-60
2021/04/11 04:34:52;;;;;;;5.47;5.13;;;19.40;77.00;;;;;;5075189;28;20032;-59
2021/04/11 04:37:39;;;;;;;5.20;5.00;;;19.20;75.50;;;;;;5076554;28;20033;-60
2021/04/11 04:40:12;;;;;;;4.68;4.47;;;18.80;78.10;;;;;;5076169;28;20519;-60
2021/04/11 04:42:46;;;;;;;4.80;4.60;;;18.70;75.80;;;;;;5076269;28;20036;-60
2021/04/11 04:45:23;;;;;;;4.80;4.53;;;18.80;75.40;;;;;;5076227;28;20615;-60
2021/04/11 04:48:32;;;;;;;4.28;4.07;;;19.10;75.40;;;;;;5076278;28;20012;-58
2021/04/11 04:51:06;;;;;;;4.38;4.18;;;19.00;75.30;;;;;;5052590;28;20041;-59
2021/04/11 04:53:39;;;;;;;5.03;4.50;;;18.90;75.80;;;;;;5076351;28;20380;-59
2021/04/11 04:56:11;;;;;;;5.00;4.70;;;18.60;75.90;;;;;;5076047;28;20095;-59
2021/04/11 04:58:51;;;;;;;5.70;5.40;;;18.30;75.60;;;;;;5076023;28;20491;-59
2021/04/11 05:01:41;;;;;;;5.40;5.10;;;18.50;77.00;;;;;;5075879;28;20099;-59
2021/04/11 05:04:16;;;;;;;4.90;4.70;;;18.90;76.90;;;;;;5075849;28;20020;-59
2021/04/11 05:06:51;;;;;;;5.45;5.15;;;18.50;74.70;;;;;;5075784;28;20249;-59
2021/04/11 05:09:51;;;;;;;5.30;5.00;;;18.50;76.40;;;;;;5075640;28;20020;-60
2021/04/11 05:12:32;;;;;;;6.32;5.93;;;18.50;75.90;;;;;;5072655;28;20033;-59
2021/04/11 05:15:06;;;;;;;5.20;4.90;;;18.50;76.90;;;;;;5075693;28;20469;-62
2021/04/11 05:17:38;;;;;;;5.20;5.00;;;18.50;77.90;;;;;;5075653;28;20024;-59
2021/04/11 05:20:12;;;;;;;5.40;5.20;;;18.40;77.10;;;;;;5075490;28;20024;-58
2021/04/11 05:23:02;;;;;;;5.35;5.00;;;18.30;76.80;;;;;;5075474;28;20073;-60
2021/04/11 05:26:11;;;;;;;5.88;5.47;;;18.30;77.30;;;;;;5067818;28;20039;-59
2021/04/11 05:28:59;;;;;;;6.00;5.70;;;18.10;77.20;;;;;;5075414;28;20392;-61
2021/04/11 05:31:36;;;;;;;5.40;5.05;;;17.90;77.20;;;;;;5075368;28;20408;-60
2021/04/11 05:34:16;;;;;;;5.35;5.03;;;18.20;79.60;;;;;;5075383;28;20024;-59
2021/04/11 05:36:47;;;;;;;5.93;5.63;;;18.00;77.80;;;;;;5075295;28;20048;-58
2021/04/11 05:39:28;;;;;;;5.28;5.00;;;18.00;79.00;;;;;;5074883;28;20072;-60
2021/04/11 05:42:04;;;;;;;5.32;5.05;;;17.90;76.30;;;;;;5073844;28;20038;-59
2021/04/11 05:44:49;;;;;;;5.40;5.10;;;17.70;77.90;;;;;;5075099;28;20059;-59
2021/04/11 05:47:53;;;;;;;6.00;5.70;;;17.70;76.70;;;;;;5075177;28;20426;-60
2021/04/11 05:50:35;;;;;;;5.00;4.80;;;17.80;77.50;;;;;;5075009;28;20103;-60
2021/04/11 05:53:24;;;;;;;5.53;5.22;;;17.50;75.50;;;;;;5075192;28;20020;-60
2021/04/11 05:55:59;;;;;;;5.70;5.30;;;17.40;77.20;;;;;;5074635;28;20032;-59
2021/04/11 05:58:35;;;;;;;5.63;5.22;;;17.40;78.70;;;;;;5074844;28;20098;-59
2021/04/11 06:01:12;;;;;;;5.80;5.50;;;17.40;79.50;;;;;;5074745;28;20024;-60
2021/04/11 06:03:48;;;;;;;5.88;5.57;;;17.10;77.60;;;;;;5073394;28;20028;-63
2021/04/11 06:07:13;;;;;;;5.50;5.30;;;17.20;79.40;;;;;;5074608;28;20374;-63
2021/04/11 06:09:53;;;;;;;5.65;5.35;;;17.10;78.20;;;;;;5065299;28;20036;-59
2021/04/11 06:12:43;;;;;;;5.25;4.95;;;17.10;77.90;;;;;;5074530;28;20029;-59
2021/04/11 06:15:16;;;;;;;5.10;4.90;;;17.20;79.20;;;;;;5074472;28;20056;-58
2021/04/11 06:17:49;;;;;;;5.05;4.80;;;17.00;78.10;;;;;;5074302;28;20511;-59
2021/04/11 06:20:17;;;;;;;5.53;5.13;;;17.10;78.00;;;;;;5074282;28;20047;-59
2021/04/11 06:22:51;;;;;;;5.72;5.32;;;17.20;79.40;;;;;;5072897;28;20047;-59
2021/04/11 06:25:31;;;;;;;5.57;5.20;;;17.20;77.50;;;;;;5074217;28;20024;-59
2021/04/11 06:28:11;;;;;;;5.17;4.97;;;17.20;78.60;;;;;;5074322;28;20027;-60
2021/04/11 06:30:56;;;;;;;5.63;5.32;;;17.10;77.50;;;;;;5074153;28;20293;-60
2021/04/11 06:33:29;;;;;;;5.55;5.15;;;17.10;78.00;;;;;;5074076;28;20488;-58
2021/04/11 06:36:21;;;;;;;5.32;5.13;;;17.20;79.90;;;;;;5074101;28;20427;-59
2021/04/11 06:38:55;;;;;;;6.18;5.70;;;17.00;77.90;;;;;;5073888;28;20048;-59
2021/04/11 06:41:26;;;;;;;5.50;5.18;;;17.00;78.40;;;;;;5073813;28;20032;-59
2021/04/11 06:44:37;;;;;;;5.47;5.28;;;16.90;78.30;;;;;;5074239;28;20017;-59
2021/04/11 06:47:19;;;;;;;5.47;5.15;;;16.90;78.00;;;;;;5073818;28;20056;-60
2021/04/11 06:50:04;;;;;;;5.60;5.30;;;16.80;78.20;;;;;;5073768;28;20016;-59
2021/04/11 06:52:34;;;;;;;5.65;5.30;;;16.70;78.50;;;;;;5073672;28;20021;-57
2021/04/11 06:55:40;;;;;;;5.75;5.45;;;16.70;79.50;;;;;;5073739;28;20031;-58
2021/04/11 06:58:29;;;;;;;5.32;4.95;;;16.70;79.00;;;;;;5018369;28;20092;-59
2021/04/11 07:01:27;;;;;;;5.63;5.22;;;16.60;79.10;;;;;;5073519;28;20388;-59
2021/04/11 07:04:28;;;;;;;5.10;4.80;;;16.50;78.90;;;;;;5073142;28;20028;-59
2021/04/11 07:07:20;;;;;;;5.25;5.00;;;16.50;80.60;;;;;;5073315;28;20074;-58
2021/04/11 07:10:01;;;;;;;4.60;4.40;;;16.50;80.30;;;;;;5073402;28;20020;-59
2021/04/11 07:13:00;;;;;;;5.40;5.05;;;16.40;80.10;;;;;;5073336;28;20066;-59
2021/04/11 07:15:43;;;;;;;5.88;5.57;;;16.40;80.90;;;;;;5070362;28;20550;-59
2021/04/11 07:18:37;;;;;;;6.60;6.10;;;16.20;83.70;;;;;;5073292;28;20017;-59
2021/04/11 07:21:35;;;;;;;5.95;5.65;;;16.20;80.60;;;;;;5073101;28;20112;-58
2021/04/11 07:24:46;;;;;;;6.70;6.30;;;16.10;82.30;;;;;;5073074;28;20024;-59
2021/04/11 07:27:46;;;;;;;5.80;5.50;;;16.00;80.90;;;;;;5070282;28;20392;-58
2021/04/11 07:30:25;;;;;;;5.60;5.30;;;16.00;80.80;;;;;;5073142;28;20021;-59
2021/04/11 07:33:11;;;;;;;6.40;5.82;;;16.00;80.40;;;;;;5073255;28;20024;-59
2021/04/11 07:35:47;;;;;;;6.07;5.75;;;15.90;81.10;;;;;;5072891;28;20023;-59
2021/04/11 07:38:30;;;;;;;5.80;5.50;;;15.90;82.30;;;;;;5071595;28;20270;-59
2021/04/11 07:41:29;;;;;;;6.20;5.90;;;15.90;81.80;;;;;;5072923;28;20029;-58
2021/04/11 07:44:17;;;;;;;6.72;6.38;;;15.80;83.70;;;;;;5072971;28;20017;-59
2021/04/11 07:47:42;;;;;;;5.40;5.10;;;15.70;83.10;;;;;;5073048;28;20101;-59
2021/04/11 07:50:20;;;;;;;5.72;5.30;;;15.70;81.70;;;;;;5011155;28;20025;-59
2021/04/11 07:53:17;;;;;;;5.97;5.57;;;15.60;82.60;;;;;;5072989;28;20073;-59
2021/04/11 07:56:06;;;;;;;5.60;5.22;;;15.60;82.30;;;;;;5073053;28;20114;-59
2021/04/11 07:59:10;;;;;;;5.70;5.40;;;15.60;81.60;;;;;;5072730;28;20020;-59
2021/04/11 08:02:03;;;;;;;5.30;4.90;;;15.60;81.90;;;;;;5072607;28;20048;-58
2021/04/11 08:05:11;;;;;;;5.32;5.05;;;15.50;81.50;;;;;;5072565;28;20025;-58
2021/04/11 08:07:51;;;;;;;5.60;5.20;;;15.50;81.80;;;;;;5072614;28;20143;-59
2021/04/11 08:10:36;;;;;;;7.80;5.80;;;15.40;81.80;;;;;;5077073;28;20534;-59
2021/04/11 08:13:12;;;;;;;5.25;5.03;;;15.40;82.80;;;;;;5076857;28;20025;-59
2021/04/11 08:16:05;;;;;;;5.07;4.88;;;15.40;82.20;;;;;;5076708;28;20028;-59
2021/04/11 08:18:53;;;;;;;5.38;4.90;;;15.40;81.70;;;;;;5076840;28;20472;-58
2021/04/11 08:21:37;;;;;;;5.30;5.00;;;15.30;82.50;;;;;;5076496;28;20484;-58
2021/04/11 08:24:25;;;;;;;6.20;5.68;;;15.30;82.60;;;;;;5076797;28;20060;-59
2021/04/11 08:27:13;;;;;;;6.00;5.60;;;15.30;82.30;;;;;;5076613;28;20032;-59
2021/04/11 08:29:43;;;;;;;6.03;5.72;;;15.30;82.90;;;;;;5076576;28;20384;-59
2021/04/11 08:32:16;;;;;;;6.00;5.70;;;15.20;83.50;;;;;;5076396;28;20020;-59
2021/04/11 08:35:11;;;;;;;5.65;5.30;;;15.20;82.70;;;;;;5076466;28;20044;-58
2021/04/11 08:38:01;;;;;;;5.13;4.80;;;15.10;83.00;;;;;;5076258;28;20029;-59
2021/04/11 08:40:57;;;;;;;6.00;4.80;;;15.10;85.70;;;;;;5076022;28;20482;-58
2021/04/11 08:43:56;;;;;;;5.30;4.90;;;15.10;83.30;;;;;;5076131;28;20028;-59
2021/04/11 08:47:17;;;;;;;5.35;4.95;;;15.00;83.30;;;;;;5047450;28;20105;-58
2021/04/11 08:49:52;;;;;;;4.05;3.85;;;14.90;83.50;;;;;;5073195;28;20041;-59
2021/04/11 08:52:56;;;;;;;5.13;4.60;;;14.90;83.90;;;;;;5075980;28;20043;-59
2021/04/11 08:55:42;;;;;;;5.07;4.78;;;14.90;83.70;;;;;;5075930;28;20476;-59
2021/04/11 08:58:18;;;;;;;4.90;4.50;;;14.90;84.50;;;;;;5076031;28;20442;-59
2021/04/11 09:01:29;;;;;;;4.38;4.18;;;14.80;83.80;;;;;;5075811;28;20469;-59
2021/04/11 09:03:58;;;;;;;;;;;14.80;83.60;;;;;;5076176;28;20028;-58
2021/04/11 09:07:01;;;;;;;4.55;4.35;;;14.80;82.80;;;;;;5075732;28;20352;-58
2021/04/11 09:09:51;;;;;;;4.50;4.20;;;14.80;83.60;;;;;;5043504;28;20370;-59
2021/04/11 09:12:36;;;;;;;4.68;4.47;;;14.70;82.90;;;;;;5075682;28;20020;-59
2021/04/11 09:15:14;;;;;;;4.72;4.53;;;14.80;83.20;;;;;;5075556;28;20081;-58
2021/04/11 09:17:50;;;;;;;4.85;4.45;;;14.70;84.30;;;;;;5075702;28;20024;-60
2021/04/11 09:20:53;;;;;;;4.53;4.30;;;14.70;83.50;;;;;;5074350;28;20433;-57
2021/04/11 09:23:47;;;;;;;5.30;5.00;;;14.60;83.80;;;;;;5075554;28;20036;-59
2021/04/11 09:26:32;;;;;;;5.00;4.70;;;14.60;83.70;;;;;;5075508;28;20055;-59
2021/04/11 09:29:43;;;;;;;4.97;4.65;;;14.60;84.20;;;;;;5075544;28;20025;-59
2021/04/11 09:32:37;;;;;;;4.93;4.63;;;14.50;84.70;;;;;;5013560;28;20041;-59
2021/04/11 09:35:13;;;;;;;5.25;4.68;;;14.50;84.70;;;;;;5013640;28;20026;-59
2021/04/11 09:38:07;;;;;;;5.03;4.63;;;14.50;84.70;;;;;;5061230;28;20059;-58
2021/04/11 09:40:43;;;;;;;5.00;4.80;;;14.50;85.40;;;;;;5075198;28;20055;-59
2021/04/11 09:43:29;;;;;;;4.28;4.07;;;14.50;85.50;;;;;;5075122;28;20017;-58
2021/04/11 09:46:11;;;;;;;4.50;4.30;;;14.50;84.10;;;;;;5075100;28;20024;-59
2021/04/11 09:48:58;;;;;;;4.60;4.40;;;14.40;85.00;;;;;;5075198;28;20020;-60
2021/04/11 09:51:47;;;;;;;5.00;4.70;;;14.30;86.70;;;;;;5064577;28;20111;-59
2021/04/11 09:54:21;;;;;;;5.20;4.90;;;14.30;85.30;;;;;;5074841;28;20029;-57
2021/04/11 09:57:06;;;;;;;5.68;5.28;;;14.30;85.50;;;;;;5074962;28;20036;-59
2021/04/11 09:59:49;;;;;;;5.45;5.15;;;14.30;86.30;;;;;;5074789;28;20036;-58
2021/04/11 10:02:25;;;;;;;4.85;4.55;;;14.20;87.00;;;;;;5073421;28;20440;-59
2021/04/11 10:04:52;;;;;;;5.55;5.05;;;14.20;86.20;;;;;;5074877;28;20025;-58
2021/04/11 10:07:46;;;;;;;5.32;5.00;;;14.10;88.30;;;;;;5074765;28;20028;-58
2021/04/11 10:10:38;;;;;;;5.85;5.50;;;14.20;86.40;;;;;;5074730;28;20028;-59
2021/04/11 10:13:46;;;;;;;5.55;5.28;;;14.10;86.20;;;;;;5074683;28;20058;-59
2021/04/11 10:16:41;;;;;;;5.90;5.45;;;14.10;85.90;;;;;;5074379;28;20190;-58
2021/04/11 10:19:18;;;;;;;5.18;4.93;;;14.10;86.40;;;;;;5074431;28;20528;-62
2021/04/11 10:22:16;;;;;;;5.20;4.90;;;14.00;87.70;;;;;;5074300;28;20020;-58
2021/04/11 10:25:04;;;;;;;5.70;5.35;;;14.00;87.10;;;;;;5045789;28;20047;-59
2021/04/11 10:27:52;;;;;;;5.80;5.50;;;14.00;86.70;;;;;;5074574;28;20035;-60
2021/04/11 10:30:20;;;;;;;5.90;5.50;;;13.90;86.80;;;;;;5074469;28;20066;-58
2021/04/11 10:32:54;;;;;;;5.60;5.28;;;13.90;87.40;;;;;;5073864;28;20024;-60
2021/04/11 10:35:39;;;;;;;5.50;5.30;;;13.80;87.70;;;;;;5074095;28;20024;-59
2021/04/11 10:38:15;;;;;;;5.60;5.30;;;13.90;87.50;;;;;;5072670;28;20423;-59
2021/04/11 10:41:12;;;;;;;5.20;4.90;;;13.80;88.00;;;;;;5073958;28;20150;-58
2021/04/11 10:44:07;;;;;;;5.95;5.57;;;13.90;88.80;;;;;;5074117;28;20012;-59
2021/04/11 10:46:55;;;;;;;5.80;5.50;;;13.80;88.40;;;;;;5074305;28;20027;-58
2021/04/11 10:49:47;;;;;;;5.75;5.43;;;13.80;87.70;;;;;;5074028;28;20070;-58
2021/04/11 10:52:37;;;;;;;5.47;5.18;;;13.80;88.00;;;;;;5074093;28;20050;-59
2021/04/11 10:55:25;;;;;;;5.75;5.55;;;13.80;87.90;;;;;;5073356;28;20040;-60
2021/04/11 10:58:19;;;;;;;6.00;5.70;;;13.70;88.90;;;;;;5073635;28;20463;-59
2021/04/11 11:01:16;;;;;;;5.82;5.43;;;13.70;88.10;;;;;;5073634;28;20055;-60
2021/04/11 11:04:25;;;;;;;5.50;5.10;;;13.70;88.40;;;;;;5073578;28;20431;-60
2021/04/11 11:07:13;;;;;;;5.50;5.20;;;13.70;88.80;;;;;;5053154;28;20032;-59
2021/04/11 11:10:07;;;;;;;5.65;5.35;;;13.70;89.10;;;;;;5073539;28;20028;-60
2021/04/11 11:12:53;;;;;;;5.30;4.90;;;13.60;89.30;;;;;;5073474;28;20032;-60
2021/04/11 11:15:33;;;;;;;5.50;5.20;;;13.60;89.20;;;;;;5073470;28;20033;-59
2021/04/11 11:18:28;;;;;;;5.80;5.50;;;13.60;88.60;;;;;;5073374;28;20449;-59
2021/04/11 11:21:09;;;;;;;6.03;5.63;;;13.60;90.00;;;;;;5073237;28;20025;-61
2021/04/11 11:24:10;;;;;;;5.70;5.40;;;13.50;89.30;;;;;;5073175;28;20495;-58
2021/04/11 11:26:57;;;;;;;5.18;4.88;;;13.60;89.60;;;;;;5073299;28;20496;-61
2021/04/11 11:30:01;;;;;;;5.93;5.63;;;13.60;89.10;;;;;;5073153;28;20024;-62
2021/04/11 11:33:09;;;;;;;6.00;5.70;;;13.50;89.50;;;;;;5073055;28;20031;-62
2021/04/11 11:35:54;;;;;;;5.75;5.45;;;13.40;89.80;;;;;;5072990;28;20028;-60
2021/04/11 11:38:44;;;;;;;5.80;5.40;;;13.40;90.00;;;;;;5072829;28;20473;-59
2021/04/11 11:41:14;;;;;;;5.20;5.00;;;13.40;89.90;;;;;;5063794;28;20064;-61
2021/04/11 11:43:57;;;;;;;5.75;5.45;;;13.40;90.30;;;;;;5072402;28;20396;-61
2021/04/11 11:46:45;;;;;;;6.05;5.75;;;13.40;89.70;;;;;;5073010;28;20025;-60
2021/04/11 11:49:43;;;;;;;5.20;5.00;;;13.40;89.80;;;;;;5073049;28;20107;-61
2021/04/11 11:52:24;;;;;;;5.88;5.50;;;13.40;90.20;;;;;;5072884;28;20142;-58
2021/04/11 11:55:00;;;;;;;6.07;5.55;;;13.30;90.20;;;;;;5072892;28;20024;-59
2021/04/11 11:57:35;;;;;;;5.70;5.40;;;13.30;90.40;;;;;;5072757;28;20028;-60
2021/04/11 12:00:18;;;;;;;6.43;5.90;;;13.20;90.60;;;;;;5072886;28;20024;-60
2021/04/11 12:03:07;;;;;;;6.00;5.70;;;13.20;90.40;;;;;;5072777;28;20099;-60
2021/04/11 12:06:09;;;;;;;6.30;5.90;;;13.20;90.70;;;;;;5072671;28;20025;-60
2021/04/11 12:08:42;;;;;;;5.78;5.38;;;13.20;90.30;;;;;;5030002;28;20025;-61
2021/04/11 12:11:32;;;;;;;5.93;5.63;;;13.30;90.70;;;;;;5072690;28;20173;-59
2021/04/11 12:14:06;;;;;;;5.88;5.47;;;13.20;90.30;;;;;;5072587;28;20024;-60
2021/04/11 12:16:42;;;;;;;5.68;5.43;;;13.20;90.80;;;;;;5072829;28;20051;-61
2021/04/11 12:19:42;;;;;;;6.15;5.75;;;13.20;90.70;;;;;;5072713;28;20550;-60
2021/04/11 12:22:18;;;;;;;6.10;5.80;;;13.20;90.70;;;;;;5072307;28;20024;-60
2021/04/11 12:25:10;;;;;;;6.30;5.90;;;13.20;90.80;;;;;;5072820;28;20025;-59
2021/04/11 12:27:39;;;;;;;5.85;5.60;;;13.20;90.60;;;;;;5072716;28;20070;-60
2021/04/11 12:30:14;;;;;;;6.68;6.28;;;13.20;90.90;;;;;;5072618;28;20024;-60
2021/04/11 12:32:48;;;;;;;6.20;6.00;;;13.10;90.70;;;;;;5071369;28;20066;-61
2021/04/11 12:35:24;;;;;;;6.45;6.05;;;13.10;90.90;;;;;;5072482;28;20078;-59
2021/04/11 12:38:00;;;;;;;6.40;6.10;;;13.10;90.80;;;;;;5072418;28;20380;-59
2021/04/11 12:40:43;;;;;;;5.90;5.60;;;13.10;91.20;;;;;;5072346;28;20036;-59
2021/04/11 12:43:17;;;;;;;6.50;6.10;;;13.10;91.00;;;;;;5072457;28;20032;-59
2021/04/11 12:46:05;;;;;;;5.97;5.68;;;13.00;91.00;;;;;;5072473;28;20069;-59
2021/04/11 12:48:58;;;;;;;5.57;5.28;;;13.00;92.10;;;;;;5041705;28;20155;-60
2021/04/11 12:51:53;;;;;;;5.25;4.90;;;13.00;91.20;;;;;;5072298;28;20503;-60
2021/04/11 12:54:34;;;;;;;5.35;4.95;;;12.90;91.40;;;;;;5046799;28;20033;-59
2021/04/11 12:57:07;;;;;;;5.50;5.20;;;12.90;91.40;;;;;;5075926;28;20108;-62
2021/04/11 12:59:42;;;;;;;5.47;5.15;;;12.90;91.30;;;;;;5076014;28;20024;-60
2021/04/11 13:02:19;;;;;;;5.70;5.40;;;12.90;91.40;;;;;;5075900;28;20020;-60
2021/04/11 13:04:59;;;;;;;5.55;5.25;;;12.80;91.50;;;;;;5076042;28;20017;-61
2021/04/11 13:07:37;;;;;;;5.80;5.40;;;12.80;91.60;;;;;;5075929;28;20023;-62
2021/04/11 13:10:14;;;;;;;6.68;6.18;;;12.90;92.00;;;;;;5075991;28;20029;-60
2021/04/11 13:13:11;;;;;;;5.70;5.30;;;12.90;91.70;;;;;;5075754;28;20027;-60
2021/04/11 13:16:12;;;;;;;5.90;5.60;;;12.90;92.30;;;;;;5075670;28;20029;-59
2021/04/11 13:18:48;;;;;;;;;;;12.80;91.70;;;;;;5075967;28;20027;-59
2021/04/11 13:21:55;;;;;;;6.00;5.70;;;12.80;91.80;;;;;;5075676;28;19958;-60
2021/04/11 13:24:30;;;;;;;6.10;5.80;;;12.80;91.60;;;;;;5075501;28;20095;-59
2021/04/11 13:27:34;;;;;;;6.10;5.78;;;12.80;92.80;;;;;;5075492;28;20373;-59
2021/04/11 13:30:46;;;;;;;6.50;5.90;;;12.70;92.00;;;;;;5075701;28;20066;-59
2021/04/11 13:33:21;;;;;;;6.07;5.68;;;12.70;92.40;;;;;;5072526;28;20497;-59
2021/04/11 13:36:04;;;;;;;5.90;5.50;;;12.70;92.00;;;;;;5075417;28;20016;-60
2021/04/11 13:38:33;;;;;;;5.95;5.55;;;12.70;92.70;;;;;;5075189;28;20116;-60
2021/04/11 13:41:25;;;;;;;6.65;6.15;;;12.60;92.20;;;;;;5075507;28;20103;-60
2021/04/11 13:44:28;;;;;;;5.88;5.60;;;12.60;92.50;;;;;;5075376;28;20096;-60
2021/04/11 13:47:07;;;;;;;5.57;5.22;;;12.60;92.30;;;;;;5052277;28;20116;-59
2021/04/11 13:49:37;;;;;;;5.78;5.47;;;12.60;92.30;;;;;;5075143;28;20024;-60
2021/04/11 13:52:36;;;;;;;6.20;5.80;;;12.60;92.50;;;;;;5073807;28;20078;-60
2021/04/11 13:55:17;;;;;;;6.18;5.88;;;12.60;92.40;;;;;;5075138;28;20491;-59
2021/04/11 13:57:47;;;;;;;;;;;12.50;92.40;;;;;;5075504;28;20029;-59
2021/04/11 14:00:37;;;;;;;6.15;5.75;;;12.50;92.80;;;;;;5075296;28;19915;-60
2021/04/11 14:03:20;;;;;;;5.95;5.60;;;12.40;92.80;;;;;;5074725;28;20070;-59